• Join FlightAware (Why Join?)
  • Login
  • US Flag 
03:46AM EDT


 

Airport Tracker/Info


-or-


 

Live Flight TrackerFlight Track Log ✈ UAL1005 ✈ 26-Oct-2013 ✈ SPIM / LIM - KEWR

Flight Track Log - Related Links

Times and Time Zones

All times are in EDT time to prevent confusion due to time zone crossing. See the UAL1005 flight status page for this flight to view local times or setup timezone preferences in your user account.

Time Position Orientation Groundspeed Altitude Reporting Facility
EDT Latitude Longitude Course Direction KTS MPH feet Rate Location/Type
12:53AM -11.4095 -77.1452 357° North  Level FlightAware Approximate
12:54AM -11.2870 -77.1514 357° North  Level FlightAware Approximate
12:55AM -11.1645 -77.1575 357° North  Level FlightAware Approximate
12:56AM -11.0421 -77.1637 357° North  Level FlightAware Approximate
12:57AM -10.9196 -77.1698 357° North  Level FlightAware Approximate
12:58AM -10.7971 -77.1760 357° North  Level FlightAware Approximate
12:59AM -10.6746 -77.1821 357° North  Level FlightAware Approximate
01:00AM -10.5521 -77.1882 357° North  Level FlightAware Approximate
01:01AM -10.4297 -77.1944 357° North  Level FlightAware Approximate
01:02AM -10.3072 -77.1880 357° North  Level Estimated
01:03AM -10.1847 -77.1946 357° North  Level FlightAware Approximate
01:04AM -10.0623 -77.2012 357° North  Level FlightAware Approximate
01:05AM -9.9367 -77.2079 357° North  Level FlightAware Approximate
01:06AM -9.8111 -77.2147 357° North  Level FlightAware Approximate
01:07AM -9.6855 -77.2214 357° North  Level FlightAware Approximate
01:08AM -9.5599 -77.2282 357° North  Level FlightAware Approximate
01:09AM -9.4344 -77.2349 357° North  Level FlightAware Approximate
01:10AM -9.3088 -77.2417 357° North  Level FlightAware Approximate
01:11AM -9.1832 -77.2484 357° North  Level FlightAware Approximate
01:12AM -9.0576 -77.2551 357° North  Level FlightAware Approximate
01:13AM -8.9320 -77.2618 357° North  Level FlightAware Approximate
01:14AM -8.8065 -77.2685 357° North  Level FlightAware Approximate
01:15AM -8.6809 -77.2753 357° North  Level FlightAware Approximate
01:16AM -8.5553 -77.2820 357° North  Level FlightAware Approximate
01:17AM -8.4297 -77.2887 357° North  Level FlightAware Approximate
01:18AM -8.3041 -77.2954 357° North  Level FlightAware Approximate
01:19AM -8.1786 -77.3020 357° North  Level FlightAware Approximate
01:20AM -8.0530 -77.3087 357° North  Level FlightAware Approximate
01:21AM -7.9274 -77.3154 357° North  Level FlightAware Approximate
01:22AM -7.8018 -77.3221 357° North  Level FlightAware Approximate
01:23AM -7.6762 -77.3288 357° North  Level FlightAware Approximate
01:24AM -7.5507 -77.3354 357° North  Level FlightAware Approximate
01:25AM -7.4251 -77.3421 357° North  Level FlightAware Approximate
01:26AM -7.2995 -77.3488 357° North  Level FlightAware Approximate
01:27AM -7.1739 -77.3555 357° North  Level FlightAware Approximate
01:28AM -7.0483 -77.3621 357° North  Level FlightAware Approximate
01:29AM -6.9228 -77.3688 357° North  Level FlightAware Approximate
01:30AM -6.7972 -77.3754 357° North  Level FlightAware Approximate
01:31AM -6.6716 -77.3821 357° North  Level FlightAware Approximate
01:32AM -6.5460 -77.3887 357° North  Level FlightAware Approximate
01:33AM -6.4204 -77.3953 357° North  Level FlightAware Approximate
01:34AM -6.2948 -77.4020 357° North  Level FlightAware Approximate
01:35AM -6.1692 -77.4086 357° North  Level FlightAware Approximate
01:36AM -6.0437 -77.4152 357° North  Level FlightAware Approximate
01:37AM -5.9181 -77.4219 357° North  Level FlightAware Approximate
01:38AM -5.7925 -77.4285 357° North  Level FlightAware Approximate
01:39AM -5.6669 -77.4351 357° North  Level FlightAware Approximate
01:40AM -5.5413 -77.4417 357° North  Level FlightAware Approximate
01:41AM -5.4157 -77.4483 357° North  Level FlightAware Approximate
01:42AM -5.2901 -77.4550 357° North  Level FlightAware Approximate
01:43AM -5.1645 -77.4616 357° North  Level FlightAware Approximate
01:44AM -5.0389 -77.4682 357° North  Level FlightAware Approximate
01:45AM -4.9133 -77.4748 357° North  Level FlightAware Approximate
01:46AM -4.7877 -77.4814 357° North  Level FlightAware Approximate
01:47AM -4.6622 -77.4880 357° North  Level FlightAware Approximate
01:48AM -4.5366 -77.4946 357° North  Level FlightAware Approximate
01:49AM -4.4110 -77.5012 357° North  Level FlightAware Approximate
01:50AM -4.2854 -77.5078 357° North  Level FlightAware Approximate
01:51AM -4.1598 -77.5144 357° North  Level FlightAware Approximate
01:52AM -4.0342 -77.5210 357° North  Level FlightAware Approximate
01:53AM -3.9086 -77.5275 357° North  Level FlightAware Approximate
01:54AM -3.7830 -77.5341 357° North  Level FlightAware Approximate
01:55AM -3.6574 -77.5407 357° North  Level FlightAware Approximate
01:56AM -3.5319 -77.5473 357° North  Level FlightAware Approximate
01:57AM -3.4063 -77.5539 357° North  Level FlightAware Approximate
01:58AM -3.2807 -77.5605 357° North  Level FlightAware Approximate
01:59AM -3.1551 -77.5670 357° North  Level FlightAware Approximate
02:00AM -3.0295 -77.5736 357° North  Level FlightAware Approximate
02:01AM -2.9039 -77.5802 357° North  Level FlightAware Approximate
02:02AM -2.7783 -77.5867 357° North  Level FlightAware Approximate
02:03AM -2.6527 -77.5933 357° North  Level FlightAware Approximate
02:04AM -2.5271 -77.5999 357° North  Level FlightAware Approximate
02:05AM -2.4015 -77.6065 357° North  Level FlightAware Approximate
02:06AM -2.2759 -77.6130 357° North  Level FlightAware Approximate
02:07AM -2.1504 -77.6196 357° North  Level FlightAware Approximate
02:08AM -2.0248 -77.6262 357° North  Level FlightAware Approximate
02:09AM -1.8992 -77.6327 357° North  Level FlightAware Approximate
02:10AM -1.7736 -77.6393 357° North  Level FlightAware Approximate
02:11AM -1.6480 -77.6458 357° North  Level FlightAware Approximate
02:12AM -1.5224 -77.6524 357° North  Level FlightAware Approximate
02:13AM -1.3968 -77.6590 357° North  Level FlightAware Approximate
02:14AM -1.2712 -77.6655 357° North  Level FlightAware Approximate
02:15AM -1.1456 -77.6721 357° North  Level FlightAware Approximate
02:16AM -1.0201 -77.6786 357° North  Level FlightAware Approximate
02:17AM -0.8945 -77.6852 357° North  Level FlightAware Approximate
02:18AM -0.7689 -77.6918 357° North  Level FlightAware Approximate
02:19AM -0.6433 -77.6983 357° North  Level FlightAware Approximate
02:20AM -0.5177 -77.7049 357° North  Level FlightAware Approximate
02:21AM -0.3921 -77.7114 357° North  Level FlightAware Approximate
02:22AM -0.2665 -77.7180 357° North  Level FlightAware Approximate
02:23AM -0.1409 -77.7246 357° North  Level FlightAware Approximate
02:24AM -0.0153 -77.7311 357° North  Level FlightAware Approximate
02:25AM 0.1103 -77.7377 357° North  Level FlightAware Approximate
02:26AM 0.2359 -77.7442 357° North  Level FlightAware Approximate
02:27AM 0.3614 -77.7508 357° North  Level FlightAware Approximate
02:28AM 0.4870 -77.7574 357° North  Level FlightAware Approximate
02:29AM 0.6126 -77.7639 357° North  Level FlightAware Approximate
02:30AM 0.7382 -77.7705 357° North  Level FlightAware Approximate
02:31AM 0.8638 -77.7770 357° North  Level FlightAware Approximate
02:32AM 0.9894 -77.7836 357° North  Level FlightAware Approximate
02:33AM 1.1150 -77.7902 357° North  Level FlightAware Approximate
02:34AM 1.2406 -77.7967 357° North  Level FlightAware Approximate
02:35AM 1.3662 -77.8033 357° North  Level FlightAware Approximate
02:36AM 1.4918 -77.8098 357° North  Level FlightAware Approximate
02:37AM 1.6173 -77.8164 357° North  Level FlightAware Approximate
02:38AM 1.7429 -77.8230 357° North  Level FlightAware Approximate
02:39AM 1.8685 -77.8295 357° North  Level FlightAware Approximate
02:40AM 1.9941 -77.8361 357° North  Level FlightAware Approximate
02:41AM 2.1197 -77.8426 357° North  Level FlightAware Approximate
02:42AM 2.2453 -77.8492 357° North  Level FlightAware Approximate
02:43AM 2.3709 -77.8558 357° North  Level FlightAware Approximate
02:44AM 2.4965 -77.8623 357° North  Level FlightAware Approximate
02:45AM 2.6221 -77.8689 357° North  Level FlightAware Approximate
02:46AM 2.7476 -77.8755 357° North  Level FlightAware Approximate
02:47AM 2.8732 -77.8820 357° North  Level FlightAware Approximate
02:48AM 2.9988 -77.8886 357° North  Level FlightAware Approximate
02:49AM 3.1244 -77.8952 357° North  Level FlightAware Approximate
02:50AM 3.2500 -77.9018 357° North  Level FlightAware Approximate
02:51AM 3.3756 -77.9083 357° North  Level FlightAware Approximate
02:52AM 3.5012 -77.9149 357° North  Level FlightAware Approximate
02:53AM 3.6268 -77.9215 357° North  Level FlightAware Approximate
02:54AM 3.7524 -77.9281 357° North  Level FlightAware Approximate
02:55AM 3.8780 -77.9347 357° North  Level FlightAware Approximate
02:56AM 4.0036 -77.9413 357° North  Level FlightAware Approximate
02:57AM 4.1291 -77.9479 357° North  Level FlightAware Approximate
02:58AM 4.2547 -77.9544 357° North  Level FlightAware Approximate
02:59AM 4.3803 -77.9610 357° North  Level FlightAware Approximate
03:00AM 4.5059 -77.9676 357° North  Level FlightAware Approximate
03:01AM 4.6315 -77.9742 357° North  Level FlightAware Approximate
03:02AM 4.7571 -77.9808 357° North  Level FlightAware Approximate
03:03AM 4.8827 -77.9874 357° North  Level FlightAware Approximate
03:04AM 5.0083 -77.9940 357° North  Level FlightAware Approximate
03:05AM 5.1339 -78.0006 357° North  Level FlightAware Approximate
03:06AM 5.2594 -78.0072 357° North  Level FlightAware Approximate
03:07AM 5.3850 -78.0139 357° North  Level FlightAware Approximate
03:08AM 5.5106 -78.0205 357° North  Level FlightAware Approximate
03:09AM 5.6362 -78.0271 357° North  Level FlightAware Approximate
03:10AM 5.7618 -78.0337 357° North  Level FlightAware Approximate
03:11AM 5.8874 -78.0403 357° North  Level FlightAware Approximate
03:12AM 6.0130 -78.0470 357° North  Level FlightAware Approximate
03:13AM 6.1386 -78.0536 357° North  Level FlightAware Approximate
03:14AM 6.2642 -78.0602 357° North  Level FlightAware Approximate
03:15AM 6.3898 -78.0669 357° North  Level FlightAware Approximate
03:16AM 6.5153 -78.0735 357° North  Level FlightAware Approximate
03:17AM 6.6409 -78.0801 357° North  Level FlightAware Approximate
03:18AM 6.7665 -78.0868 357° North  Level FlightAware Approximate
03:19AM 6.8921 -78.0935 357° North  Level FlightAware Approximate
03:20AM 7.0177 -78.1001 357° North  Level FlightAware Approximate
03:21AM 7.1433 -78.1068 357° North  Level FlightAware Approximate
03:22AM 7.2688 -78.1134 357° North  Level FlightAware Approximate
03:23AM 7.3944 -78.1201 357° North  Level FlightAware Approximate
03:24AM 7.5200 -78.1267 357° North  Level FlightAware Approximate
03:25AM 7.6456 -78.1334 357° North  Level FlightAware Approximate
03:26AM 7.7712 -78.1401 357° North  Level FlightAware Approximate
03:27AM 7.8967 -78.1468 357° North  Level FlightAware Approximate
03:28AM 8.0223 -78.1535 357° North  Level FlightAware Approximate
03:29AM 8.1479 -78.1601 357° North  Level FlightAware Approximate
03:30AM 8.2735 -78.1668 357° North  Level FlightAware Approximate
03:31AM 8.3991 -78.1735 357° North  Level FlightAware Approximate
03:32AM 8.5246 -78.1802 357° North  Level FlightAware Approximate
03:33AM 8.6502 -78.1869 357° North  Level FlightAware Approximate
03:34AM 8.7758 -78.1936 357° North  Level FlightAware Approximate
03:35AM 8.9014 -78.2004 357° North  Level FlightAware Approximate
03:36AM 9.0270 -78.2071 357° North  Level FlightAware Approximate
03:37AM 9.1525 -78.2138 357° North  Level FlightAware Approximate
03:38AM 9.2781 -78.2205 357° North  Level FlightAware Approximate
03:39AM 9.4037 -78.2273 357° North  Level FlightAware Approximate
03:40AM 9.5293 -78.2340 357° North  Level FlightAware Approximate
03:41AM 9.6549 -78.2407 357° North  Level FlightAware Approximate
03:42AM 9.7804 -78.2475 357° North  Level FlightAware Approximate
03:43AM 9.9060 -78.2542 357° North  Level FlightAware Approximate
03:44AM 10.0316 -78.2610 357° North  Level FlightAware Approximate
03:45AM 10.1572 -78.2678 357° North  Level FlightAware Approximate
03:46AM 10.2828 -78.2745 357° North  Level FlightAware Approximate
03:47AM 10.4083 -78.2813 357° North  Level FlightAware Approximate
03:48AM 10.5339 -78.2881 357° North  Level FlightAware Approximate
03:49AM 10.6595 -78.2949 357° North  Level FlightAware Approximate
03:50AM 10.7851 -78.3017 357° North  Level FlightAware Approximate
03:51AM 10.9107 -78.3084 357° North  Level FlightAware Approximate
03:52AM 11.0362 -78.3152 357° North  Level FlightAware Approximate
03:53AM 11.1618 -78.3221 357° North  Level FlightAware Approximate
03:54AM 11.2874 -78.3289 357° North  Level FlightAware Approximate
03:55AM 11.4130 -78.3357 357° North  Level FlightAware Approximate
03:56AM 11.5386 -78.3425 357° North  Level FlightAware Approximate
03:57AM 11.6641 -78.3493 357° North  Level FlightAware Approximate
03:58AM 11.7897 -78.3562 357° North  Level FlightAware Approximate
03:59AM 11.9153 -78.3630 357° North  Level FlightAware Approximate
04:00AM 12.0409 -78.3699 357° North  Level FlightAware Approximate
04:01AM 12.1665 -78.3767 357° North  Level FlightAware Approximate
04:02AM 12.2920 -78.3836 357° North  Level FlightAware Approximate
04:03AM 12.4176 -78.3905 357° North  Level FlightAware Approximate
04:04AM 12.5432 -78.3973 357° North  Level FlightAware Approximate
04:05AM 12.6688 -78.4042 357° North  Level FlightAware Approximate
04:06AM 12.7944 -78.4111 357° North  Level FlightAware Approximate
04:07AM 12.9199 -78.4180 357° North  Level FlightAware Approximate
04:08AM 13.0455 -78.4249 357° North  Level FlightAware Approximate
04:09AM 13.1711 -78.4318 357° North  Level FlightAware Approximate
04:10AM 13.2967 -78.4388 357° North  Level FlightAware Approximate
04:11AM 13.4223 -78.4457 357° North  Level FlightAware Approximate
04:12AM 13.5478 -78.4526 357° North  Level FlightAware Approximate
04:13AM 13.6734 -78.4595 357° North  Level FlightAware Approximate
04:14AM 13.7990 -78.4665 357° North  Level FlightAware Approximate
04:15AM 13.9246 -78.4734 357° North  Level FlightAware Approximate
04:16AM 14.0502 -78.4804 357° North  Level FlightAware Approximate
04:17AM 14.1757 -78.4874 357° North  Level FlightAware Approximate
04:18AM 14.3013 -78.4944 357° North  Level FlightAware Approximate
04:19AM 14.4269 -78.5014 357° North  Level FlightAware Approximate
04:20AM 14.5525 -78.5083 357° North  Level FlightAware Approximate
04:21AM 14.6772 -78.4916 357° North  Level Estimated
04:22AM 14.8027 -78.4990 357° North  Level FlightAware Approximate
04:23AM 14.9283 -78.5065 357° North  Level FlightAware Approximate
04:24AM 15.0538 -78.5140 357° North  Level FlightAware Approximate
04:25AM 15.1794 -78.5215 357° North  Level FlightAware Approximate
04:26AM 15.3049 -78.5290 357° North  Level FlightAware Approximate
04:27AM 15.4305 -78.5365 357° North  Level FlightAware Approximate
04:28AM 15.5560 -78.5440 357° North  Level FlightAware Approximate
04:29AM 15.6816 -78.5515 357° North  Level FlightAware Approximate
04:30AM 15.8071 -78.5591 357° North  Level FlightAware Approximate
04:31AM 15.9327 -78.5666 357° North  Level FlightAware Approximate
04:32AM 16.0582 -78.5742 357° North  Level FlightAware Approximate
04:33AM 16.1838 -78.5817 357° North  Level FlightAware Approximate
04:34AM 16.3093 -78.5893 357° North  Level FlightAware Approximate
04:35AM 16.4349 -78.5969 357° North  Level FlightAware Approximate
04:36AM 16.5604 -78.6044 357° North  Level FlightAware Approximate
04:37AM 16.6860 -78.6121 357° North  Level FlightAware Approximate
04:38AM 16.8115 -78.6197 357° North  Level FlightAware Approximate
04:39AM 16.9371 -78.6273 357° North  Level FlightAware Approximate
04:40AM 17.0626 -78.6349 357° North  Level FlightAware Approximate
04:41AM 17.1882 -78.6425 357° North  Level FlightAware Approximate
04:42AM 17.3137 -78.6502 357° North  Level FlightAware Approximate
04:43AM 17.4393 -78.6579 357° North  Level FlightAware Approximate
04:44AM 17.5648 -78.6656 357° North  Level FlightAware Approximate
04:45AM 17.6904 -78.6732 357° North  Level FlightAware Approximate
04:46AM 17.8159 -78.6809 357° North  Level FlightAware Approximate
04:47AM 17.9415 -78.6887 357° North  Level FlightAware Approximate
04:48AM 18.0670 -78.6964 357° North  Level FlightAware Approximate
04:49AM 18.1925 -78.7041 357° North  Level FlightAware Approximate
04:50AM 18.3181 -78.7118 357° North  Level FlightAware Approximate
04:51AM 18.4436 -78.7196 357° North  Level FlightAware Approximate
04:52AM 18.5692 -78.7273 357° North  Level FlightAware Approximate
04:53AM 18.6947 -78.7351 357° North  Level FlightAware Approximate
04:54AM 18.8202 -78.7429 357° North  Level FlightAware Approximate
04:55AM 18.9458 -78.7507 357° North  Level FlightAware Approximate
04:56AM 19.0713 -78.7585 357° North  Level FlightAware Approximate
04:57AM 19.1969 -78.7663 357° North  Level FlightAware Approximate
04:58AM 19.3224 -78.7742 357° North  Level FlightAware Approximate
04:59AM 19.4479 -78.7820 357° North  Level FlightAware Approximate
05:00AM 19.5735 -78.7899 357° North  Level FlightAware Approximate
05:01AM 19.6975 -78.7676 356° North  Level Estimated
05:02AM 19.8227 -78.7803 355° North  Level FlightAware Approximate
05:03AM 19.9479 -78.7931 355° North  Level FlightAware Approximate
05:04AM 20.0730 -78.8058 355° North  Level FlightAware Approximate
05:05AM 20.1982 -78.8186 355° North  Level FlightAware Approximate
05:06AM 20.3221 -78.7955 357° North  Level Estimated
05:07AM 20.4476 -78.8045 356° North  Level FlightAware Approximate
05:08AM 20.5730 -78.8136 356° North  Level FlightAware Approximate
05:09AM 20.6985 -78.8226 356° North  Level FlightAware Approximate
05:10AM 20.8240 -78.8317 356° North  Level FlightAware Approximate
05:11AM 20.9494 -78.8408 356° North  Level FlightAware Approximate
05:12AM 21.0749 -78.8499 356° North  Level FlightAware Approximate
05:13AM 21.2004 -78.8590 356° North  Level FlightAware Approximate
05:14AM 21.3258 -78.8681 356° North  Level FlightAware Approximate
05:15AM 21.4513 -78.8773 356° North  Level FlightAware Approximate
05:16AM 21.5768 -78.8864 356° North  Level FlightAware Approximate
05:17AM 21.7023 -78.8956 356° North  Level FlightAware Approximate
05:18AM 21.8277 -78.9048 356° North  Level FlightAware Approximate
05:19AM 21.9532 -78.9140 356° North  Level FlightAware Approximate
05:20AM 22.0787 -78.9232 356° North  Level FlightAware Approximate
05:21AM 22.2041 -78.9325 356° North  Level FlightAware Approximate
05:22AM 22.3296 -78.9417 356° North  Level FlightAware Approximate
05:23AM 22.4551 -78.9510 356° North  Level FlightAware Approximate
05:24AM 22.5805 -78.9603 356° North  Level FlightAware Approximate
05:25AM 22.7060 -78.9696 356° North  Level FlightAware Approximate
05:26AM 22.8315 -78.9790 356° North  Level FlightAware Approximate
05:27AM 22.9569 -78.9883 356° North  Level FlightAware Approximate
05:27AM 22.3139 -79.0278 356° North 472 543 36,000  Level Miami Center
05:28AM 23.0824 -78.9977 356° North  Level FlightAware Approximate
05:28AM 22.4433 -79.0319 358° North 472 543 36,000  Level Miami Center
05:29AM 23.2078 -79.0070 356° North  Level FlightAware Approximate
05:29AM 22.5708 -79.0275 North 661 761 36,000  Level Miami Center
05:30AM 23.3333 -79.0164 356° North  Level FlightAware Approximate
05:30AM 22.7022 -79.0342 357° North 513 590 36,000  Level Miami Center
05:31AM 23.4588 -79.0258 356° North  Level FlightAware Approximate
05:31AM 22.8214 -79.0181 North 495 570 36,000  Level Miami Center
05:32AM 22.9675 -79.0431 351° North 481 554 36,000  Level Miami Center
05:33AM 23.1072 -79.0544 356° North 487 560 36,000  Level Miami Center
05:34AM 23.2286 -79.0428 North 465 535 36,000  Level Miami Center
05:35AM 23.3683 -79.0567 355° North 460 529 36,000  Level Miami Center
05:36AM 23.5042 -79.0589 359° North 474 545 36,000  Level Miami Center
05:37AM 23.6336 -79.0589 360° North 474 545 36,000  Level Miami Center
05:38AM 23.7633 -79.0589 360° North 469 540 36,000  Level Miami Center
05:39AM 23.8947 -79.0633 358° North 469 540 36,000  Level Miami Center
05:40AM 24.0389 -79.0750 356° North 477 549 36,000 360 Level Miami Center
05:41AM 24.1644 -79.0636 North 472 543 36,800 480 Climbing Miami Center
05:42AM 24.3067 -79.0500 North 466 536 37,000 60 Climbing Miami Center
05:43AM 24.4406 -79.0386 North 466 536 37,000  Level Miami Center
05:44AM 24.5703 -79.0228 North 473 544 37,000  Level Miami Center
05:45AM 24.7106 -79.0044 North 473 544 37,000  Level Miami Center
05:46AM 24.8403 -78.9931 North 479 551 37,000  Level Miami Center
05:47AM 24.9742 -78.9747 North 479 551 37,000  Level Miami Center
05:48AM 25.1019 -78.9633 North 479 551 37,000  Level Miami Center
05:49AM 25.2339 -78.9494 North 479 551 37,000  Level Miami Center
05:50AM 25.3614 -78.9378 North 473 544 37,000  Level Miami Center
05:51AM 25.4975 -78.9239 North 473 544 37,000  Level Miami Center
05:52AM 25.6272 -78.9078 North 473 544 37,000  Level Miami Center
05:53AM 25.7631 -78.8939 North 478 550 37,000  Level Miami Center
05:54AM 25.8886 -78.8822 North 470 541 37,000  Level Miami Center
05:55AM 26.0289 -78.8636 North 470 541 37,000  Level Miami Center
05:56AM 26.1586 -78.8519 North 475 547 37,000  Level Miami Center
05:57AM 26.2883 -78.8333 North 475 547 37,000  Level Miami Center
05:58AM 26.4244 -78.8194 North 480 552 37,000  Level Miami Center
05:59AM 26.5519 -78.8075 North 480 552 37,000  Level Miami Center
06:00AM 26.6817 -78.7911 North 475 547 37,000  Level Miami Center
06:01AM 26.8114 -78.7792 North 469 540 37,000  Level Miami Center
06:02AM 26.9392 -78.7628 North 464 534 37,000  Level Miami Center
06:03AM 27.0708 -78.7508 North 464 534 37,000  Level Miami Center
06:04AM 27.1881 -78.7342 North 464 534 37,000  Level Miami Center
06:05AM 27.3322 -78.7178 North 470 541 37,000  Level Miami Center
06:06AM 27.4661 -78.7033 North 470 541 37,000  Level Miami Center
06:07AM 27.6000 -78.6892 North 470 541 37,000  Level Miami Center
06:08AM 27.7211 -78.6747 North 475 547 37,000  Level Miami Center
06:09AM 27.8572 -78.6628 North 481 554 37,000  Level Miami Center
06:10AM 27.9950 -78.6461 North 487 560 37,000  Level Miami Center
06:11AM 28.1331 -78.6319 North 487 560 37,000  Level Miami Center
06:12AM 28.2731 -78.6153 North 495 570 37,000  Level Miami Center
06:13AM 28.4133 -78.6008 North 501 577 37,000  Level Miami Center
06:14AM 28.5511 -78.5864 North 496 571 37,000  Level Miami Center
06:15AM 28.6869 -78.5694 North 496 571 37,000  Level Miami Center
06:16AM 28.8228 -78.5528 North 496 571 37,000  Level Miami Center
06:17AM 28.9628 -78.5383 North 504 580 37,000  Level Miami Center
06:18AM 29.0986 -78.5236 North 493 567 37,000  Level Miami Center
06:19AM 29.2386 -78.5044 North 493 567 37,000  Level Miami Center
06:20AM 29.3744 -78.4897 North 499 574 37,000  Level Miami Center
06:21AM 29.5122 -78.4750 North 499 574 37,000  Level Miami Center
06:22AM 29.6481 -78.4628 North 487 560 37,000  Level Miami Center
06:23AM 29.7775 -78.4433 North 482 555 37,000  Level Miami Center
06:24AM 29.9875 -78.4158 North 454 522 37,000  Level Jacksonville Center
06:25AM 30.1186 -78.4025 North 473 544 37,000  Level Jacksonville Center
06:26AM 30.2328 -78.3850 North 473 544 37,000  Level Jacksonville Center
06:27AM 30.3636 -78.3694 North 473 544 37,000  Level Jacksonville Center
06:28AM 30.4989 -78.3533 North 478 550 37,000  Level Jacksonville Center
06:29AM 30.6275 -78.3375 North 478 550 37,000  Level Jacksonville Center
06:30AM 30.7544 -78.3242 North 474 545 37,000  Level Jacksonville Center
06:31AM 30.8917 -78.3078 North 468 539 37,000  Level Jacksonville Center
06:32AM 31.0183 -78.2897 North 468 539 37,000  Level Jacksonville Center
06:33AM 31.1472 -78.2761 North 463 533 37,000  Level Jacksonville Center
06:34AM 31.2764 -78.2647 North 463 533 37,000  Level Jacksonville Center
06:35AM 31.4050 -78.2439 North 463 533 37,000  Level Jacksonville Center
06:36AM 31.5319 -78.2325 North 463 533 37,000  Level Jacksonville Center
06:37AM 31.6625 -78.2089 North 463 533 37,000  Level Jacksonville Center
06:38AM 31.7914 -78.1975 North 463 533 37,000  Level Jacksonville Center
06:39AM 31.9200 -78.1764 North 463 533 37,000  Level Jacksonville Center
06:40AM 32.0511 -78.1622 North 463 533 37,000  Level Jacksonville Center
06:41AM 32.1797 -78.1458 North 463 533 37,000  Level Jacksonville Center
06:42AM 32.3108 -78.1317 North 463 533 37,000  Level Jacksonville Center
06:43AM 32.4417 -78.1175 North 463 533 37,000  Level Jacksonville Center
06:44AM 32.5706 -78.0983 North 463 533 37,000  Level Jacksonville Center
06:45AM 32.6992 -78.0842 North 463 533 37,000  Level Jacksonville Center
06:46AM 32.8281 -78.0647 North 463 533 37,000  Level Jacksonville Center
06:47AM 32.9567 -78.0506 North 463 533 37,000  Level Jacksonville Center
06:48AM 33.0856 -78.0361 North 463 533 37,000  Level Jacksonville Center
06:51AM 33.3694 -78.0008 North 464 534 37,000  Level Washington Center
06:52AM 33.4950 -77.9847 North 464 534 37,000  Level Washington Center
06:53AM 33.6225 -77.9683 North 464 534 37,000  Level Washington Center
06:54AM 33.7481 -77.9519 North 464 534 37,000  Level Washington Center
06:55AM 33.8756 -77.9356 North 464 534 37,000  Level Washington Center
06:56AM 34.0008 -77.9317 North 464 534 37,000  Level Washington Center
06:57AM 34.1239 -77.9275 North 454 522 37,000  Level Washington Center
06:58AM 34.2472 -77.9208 North 448 516 37,000  Level Washington Center
06:59AM 34.3600 -77.9192 North 448 516 37,000  Level Washington Center
07:00AM 34.4831 -77.9175 North 442 509 37,000  Level Washington Center
07:01AM 34.6061 -77.9161 North 436 502 37,000  Level Washington Center
07:02AM 34.7294 -77.9094 North 441 507 37,000  Level Washington Center
07:03AM 34.8631 -77.9031 North 441 507 37,000  Level Washington Center
07:04AM 34.9906 -77.8992 North 441 507 37,000  Level Washington Center
07:05AM 35.1178 -77.8950 North 441 507 37,000  Level Washington Center
07:06AM 35.2431 -77.8911 North 441 507 37,000  Level Washington Center
07:07AM 35.3703 -77.8869 North 441 507 37,000  Level Washington Center
07:08AM 35.4997 -77.8856 North 446 513 37,000  Level Washington Center
07:09AM 35.6275 -77.8689 North 451 519 37,000  Level Washington Center
07:10AM 35.7550 -77.8547 North 456 525 37,000  Level Washington Center
07:11AM 35.8806 -77.8378 North 456 525 37,000  Level Washington Center
07:12AM 36.0081 -77.8233 North 456 525 37,000  Level Washington Center
07:13AM 36.1356 -77.8089 North 456 525 37,000  Level Washington Center
07:14AM 36.2611 -77.7919 North 456 525 37,000  Level Washington Center
07:15AM 36.3867 -77.7747 North 456 525 37,000  Level Washington Center
07:16AM 36.5225 -77.7578 North 446 513 37,000  Level Washington Center
07:17AM 36.6606 -77.7411 North 446 513 37,000  Level Washington Center
07:18AM 36.7839 -77.7211 North 446 513 37,000  Level Washington Center
07:19AM 36.9053 -77.7061 North 446 513 37,000  Level Washington Center
07:20AM 37.0264 -77.6914 North 441 507 37,000  Level Washington Center
07:21AM 37.1497 -77.6739 North 441 507 37,000  Level Washington Center
07:22AM 37.2564 -77.6586 North 435 501 37,000  Level Washington Center
07:23AM 37.3778 -77.6408 North 435 501 37,000  Level Washington Center
07:24AM 37.4992 -77.6258 North 435 501 37,000  Level Washington Center
07:25AM 37.6225 -77.6081 North 435 501 37,000  Level Washington Center
07:26AM 37.7458 -77.5903 North 440 506 37,000  Level Washington Center
07:27AM 37.8614 -77.5303 22° Northeast 440 506 37,000  Level Washington Center
07:28AM 37.9672 -77.4331 36° Northeast 445 512 37,000  Level Washington Center
07:29AM 38.0731 -77.3325 37° Northeast 457 526 37,000  Level Washington Center
07:30AM 38.1808 -77.2347 35° Northeast 469 540 37,000  Level Washington Center
07:31AM 38.2883 -77.1339 36° Northeast 479 551 37,000  Level Washington Center
07:32AM 38.3939 -77.0328 37° Northeast 479 551 37,000  Level Washington Center
07:33AM 38.5014 -76.9342 36° Northeast 479 551 37,000  Level Washington Center
07:34AM 38.6108 -76.8350 35° Northeast 479 551 37,000  Level Washington Center
07:35AM 38.7183 -76.7306 37° Northeast 484 557 37,000  Level Washington Center
07:36AM 38.8214 -76.6147 41° Northeast 484 557 37,000 -60 Level Washington Center
07:37AM 38.9203 -76.4989 42° Northeast 484 557 36,900 -1,140 Descending Washington Center
07:38AM 39.0211 -76.3797 43° Northeast 484 557 34,800 -2,460 Descending Washington Center
07:39AM 39.1219 -76.2631 42° Northeast 484 557 32,000 -3,120 Descending Washington Center
07:40AM 39.2247 -76.1461 41° Northeast 484 557 28,500 -2,640 Descending Washington Center
07:41AM 39.3253 -76.0261 43° Northeast 489 563 26,700 -1,920 Descending Washington Center
07:42AM 39.4278 -75.9086 42° Northeast 489 563 24,800 -1,680 Descending Washington Center
07:43AM 39.5281 -75.7881 43° Northeast 489 563 23,500 -1,320 Descending Washington Center
07:44AM 39.6281 -75.6697 42° Northeast 489 563 22,200 -1,680 Descending Washington Center
07:45AM 39.7261 -75.5511 43° Northeast 484 557 20,200 -2,340 Descending Washington Center
07:46AM 39.8175 -75.4403 43° Northeast 464 534 17,600 -2,580 Descending Washington Center
07:47AM 39.9050 -75.3319 44° Northeast 450 518 15,000 -2,700 Descending Washington Center
07:48AM 39.9900 -75.2314 42° Northeast 427 491 12,300 -1,800 Descending Washington Center
07:49AM 40.0750 -75.1278 43° Northeast 398 458 11,400 -720 Descending Washington Center
07:50AM 40.1333 -75.0500 46° Northeast 318 366 10,900 -960 Descending New York TRACON
07:51AM 40.2000 -74.9833 37° Northeast 299 344 9,600 -1,440 Descending New York TRACON
07:52AM 40.2500 -74.9000 52° Northeast 296 341 8,200 -900 Descending New York TRACON
07:53AM 40.3000 -74.8333 45° Northeast 289 333 8,000 -600 Descending New York TRACON
07:54AM 40.3667 -74.7500 44° Northeast 287 330 7,100 -1,020 Descending New York TRACON
07:55AM 40.4167 -74.6833 45° Northeast 282 325 6,000 -600 Descending New York TRACON
07:55AM 40.4833 -74.6500 21° North 268 308 6,000  Level New York TRACON
07:56AM 40.5500 -74.6333 11° North 265 305 6,000  Level New York TRACON
07:57AM 40.6167 -74.6167 11° North 264 304 6,000 -240 Level New York TRACON
07:58AM 40.6833 -74.5833 21° North 269 310 5,600 -540 Descending New York TRACON
07:59AM 40.7500 -74.5333 30° Northeast 254 292 5,000 -300 Descending New York TRACON
08:00AM 40.8000 -74.4833 37° Northeast 258 297 5,000  Level New York TRACON
08:01AM 40.8333 -74.4167 57° Northeast 265 305 5,000 -480 Level New York TRACON
08:02AM 40.8833 -74.3333 52° Northeast 271 312 4,200 -540 Descending New York TRACON
08:03AM 40.8833 -74.2500 90° East 266 306 4,000 -120 Descending New York TRACON
08:04AM 40.9000 -74.1500 78° East 243 280 4,000 -540 Level New York TRACON
08:05AM 40.8667 -74.0833 123° Southeast 234 269 3,000 -840 Descending New York TRACON
08:06AM 40.8167 -74.0833 180° South 189 217 2,500 -720 Descending New York TRACON
08:07AM 40.7667 -74.1167 207° Southwest 164 189 1,700 -840 Descending New York TRACON
08:08AM 40.7333 -74.1333 201° Southwest 134 154 900 -840 Descending New York TRACON